createdAt,value
2023-04-08T00:02:54.315Z,7.20
2023-04-08T00:06:57.657Z,7.45
2023-04-08T00:11:00.687Z,6.80
2023-04-08T00:15:03.555Z,7.38
2023-04-08T00:19:07.805Z,6.18
2023-04-08T00:23:10.776Z,7.22
2023-04-08T00:27:13.644Z,5.90
2023-04-08T00:31:16.613Z,6.78
2023-04-08T00:35:21.029Z,6.97
2023-04-08T00:39:23.942Z,6.10
2023-04-08T00:43:27.065Z,6.18
2023-04-08T00:47:30.479Z,6.72
2023-04-08T00:51:36.391Z,6.18
2023-04-08T00:55:39.232Z,6.03
2023-04-08T00:59:42.318Z,5.55
2023-04-08T01:03:55.724Z,6.55
2023-04-08T01:08:02.981Z,6.20
2023-04-08T01:12:10.314Z,6.05
2023-04-08T01:16:17.721Z,6.63
2023-04-08T01:20:21.451Z,6.78
2023-04-08T01:24:30.620Z,6.93
2023-04-08T01:28:35.557Z,7.40
2023-04-08T01:32:39.624Z,8.32
2023-04-08T01:36:45.476Z,7.22
2023-04-08T01:40:50.597Z,7.95
2023-04-08T01:44:57.499Z,11.50
2023-04-08T01:49:01.244Z,8.13
2023-04-08T01:53:05.615Z,8.25
2023-04-08T01:57:13.779Z,7.32
2023-04-08T02:01:20.752Z,7.32
2023-04-08T02:05:25.910Z,7.55
2023-04-08T02:09:28.732Z,7.85
2023-04-08T02:13:33.923Z,8.95
2023-04-08T02:17:44.974Z,8.55
2023-04-08T02:21:50.959Z,8.52
2023-04-08T02:25:55.865Z,9.13
2023-04-08T02:30:04.804Z,9.25
2023-04-08T02:34:10.661Z,9.25
2023-04-08T02:38:13.650Z,9.20
2023-04-08T02:42:16.598Z,9.95
2023-04-08T02:46:19.613Z,10.05
2023-04-08T02:50:24.093Z,9.80
2023-04-08T02:54:26.949Z,9.45
2023-04-08T02:58:29.975Z,9.80
2023-04-08T03:02:33.018Z,10.43
2023-04-08T03:06:37.400Z,10.05
2023-04-08T03:10:40.163Z,10.20
2023-04-08T03:14:42.952Z,10.30
2023-04-08T03:18:45.735Z,10.68
2023-04-08T03:22:49.875Z,10.10
2023-04-08T03:26:52.679Z,9.88
2023-04-08T03:30:55.517Z,11.15
2023-04-08T03:34:58.406Z,11.20
2023-04-08T03:39:03.756Z,11.07
2023-04-08T03:43:08.722Z,10.95
2023-04-08T03:47:11.539Z,10.60
2023-04-08T03:51:14.353Z,12.20
2023-04-08T03:55:18.624Z,11.23
2023-04-08T03:59:21.379Z,12.65
2023-04-08T04:03:24.793Z,11.32
2023-04-08T04:07:27.736Z,12.90
2023-04-08T04:11:31.841Z,12.45
2023-04-08T04:15:34.671Z,11.80
2023-04-08T04:19:37.520Z,12.30
2023-04-08T04:23:40.410Z,12.25
2023-04-08T04:27:44.563Z,12.50
2023-04-08T04:31:47.326Z,12.35
2023-04-08T04:35:50.188Z,12.35
2023-04-08T04:39:53.004Z,11.48
2023-04-08T04:43:57.163Z,13.07
2023-04-08T04:48:00.033Z,12.70
2023-04-08T04:52:02.965Z,12.48
2023-04-08T04:56:05.967Z,12.75
2023-04-08T05:00:11.572Z,12.73
2023-04-08T05:04:14.366Z,14.00
2023-04-08T05:08:17.291Z,13.30
2023-04-08T05:12:20.658Z,12.48
2023-04-08T05:16:24.888Z,11.88
2023-04-08T05:20:27.749Z,10.68
2023-04-08T05:24:30.812Z,11.52
2023-04-08T05:28:33.644Z,11.57
2023-04-08T05:32:37.903Z,11.32
2023-04-08T05:36:40.905Z,11.00
2023-04-08T05:40:43.748Z,10.18
2023-04-08T05:44:46.701Z,10.40
2023-04-08T05:48:51.159Z,10.02
2023-04-08T05:52:54.165Z,10.13
2023-04-08T05:56:56.981Z,10.27
2023-04-08T06:00:59.863Z,10.02
2023-04-08T06:05:04.883Z,10.88
2023-04-08T06:09:07.803Z,10.00
2023-04-08T06:13:10.591Z,9.43
2023-04-08T06:17:13.467Z,9.10
2023-04-08T06:21:17.660Z,9.00
2023-04-08T06:25:20.511Z,9.55
2023-04-08T06:29:23.762Z,9.82
2023-04-08T06:33:26.604Z,10.85
2023-04-08T06:37:30.850Z,10.15
2023-04-08T06:41:33.697Z,10.32
2023-04-08T06:45:52.058Z,10.27
2023-04-08T06:49:55.030Z,11.35
2023-04-08T06:53:59.172Z,12.07
2023-04-08T06:58:02.513Z,12.18
2023-04-08T07:02:05.592Z,12.88
2023-04-08T07:06:08.506Z,13.25
2023-04-08T07:10:14.455Z,14.05
2023-04-08T07:14:17.285Z,14.23
2023-04-08T07:18:21.630Z,15.40
2023-04-08T07:22:24.516Z,14.02
2023-04-08T07:26:29.184Z,16.17
2023-04-08T07:30:32.106Z,14.45
2023-04-08T07:34:35.936Z,15.32
2023-04-08T07:38:38.908Z,15.00
2023-04-08T07:42:43.118Z,13.77
2023-04-08T07:46:49.410Z,14.90
2023-04-08T07:51:09.255Z,14.63
2023-04-08T07:55:13.687Z,14.30
2023-04-08T07:59:18.040Z,13.35
2023-04-08T08:03:20.967Z,13.35
2023-04-08T08:07:23.883Z,14.02
2023-04-08T08:11:28.023Z,14.30
2023-04-08T08:15:32.344Z,12.40
2023-04-08T08:19:35.381Z,12.90
2023-04-08T08:23:38.598Z,12.20
2023-04-08T08:27:42.419Z,12.00
2023-04-08T08:31:48.518Z,12.43
2023-04-08T08:35:51.802Z,12.40
2023-04-08T08:39:54.765Z,12.02
2023-04-08T08:43:58.235Z,13.00
2023-04-08T08:48:02.729Z,11.77
2023-04-08T08:52:06.879Z,12.07
2023-04-08T08:56:17.352Z,11.32
2023-04-08T09:00:34.446Z,11.80
2023-04-08T09:04:39.399Z,12.73
2023-04-08T09:08:42.803Z,11.73
2023-04-08T09:12:55.770Z,10.18
2023-04-08T09:16:58.616Z,11.65
2023-04-08T09:21:03.474Z,10.35
2023-04-08T09:25:24.107Z,9.50
2023-04-08T09:29:31.163Z,9.50
2023-04-08T09:33:36.254Z,10.55
2023-04-08T09:37:40.581Z,10.63
2023-04-08T09:41:44.640Z,12.18
2023-04-08T09:45:48.579Z,10.45
2023-04-08T09:49:56.656Z,12.23
2023-04-08T09:54:04.096Z,11.40
2023-04-08T09:58:12.503Z,11.15
2023-04-08T10:02:21.356Z,11.15
2023-04-08T10:06:29.453Z,12.27
2023-04-08T10:10:34.868Z,11.60
2023-04-08T10:14:37.791Z,12.43
2023-04-08T10:18:40.741Z,11.80
2023-04-08T10:22:50.389Z,11.73
2023-04-08T10:26:54.537Z,12.15
2023-04-08T10:30:58.613Z,11.70
2023-04-08T10:35:01.596Z,12.57
2023-04-08T10:39:04.545Z,11.07
2023-04-08T10:43:08.806Z,11.50
2023-04-08T10:47:12.757Z,11.20
2023-04-08T10:51:15.798Z,11.57
2023-04-08T10:55:24.002Z,12.02
2023-04-08T10:59:33.257Z,11.20
2023-04-08T11:03:37.705Z,13.13
2023-04-08T11:07:42.371Z,11.38
2023-04-08T11:11:46.303Z,13.30
2023-04-08T11:15:51.344Z,12.05
2023-04-08T11:19:54.379Z,12.35
2023-04-08T11:23:57.304Z,12.15
2023-04-08T11:28:01.227Z,12.18
2023-04-08T11:32:05.493Z,13.13
2023-04-08T11:36:08.483Z,12.18
2023-04-08T11:40:13.234Z,13.15
2023-04-08T11:44:16.117Z,10.70
2023-04-08T11:48:20.287Z,10.30
2023-04-08T11:52:23.234Z,10.48
2023-04-08T11:56:27.133Z,10.10
2023-04-08T12:00:30.272Z,11.05
2023-04-08T12:04:34.791Z,10.77
2023-04-08T12:08:38.908Z,11.85
2023-04-08T12:12:42.115Z,11.98
2023-04-08T12:16:44.960Z,11.38
2023-04-08T12:20:49.145Z,11.93
2023-04-08T12:24:52.033Z,11.50
2023-04-08T12:28:54.890Z,12.48
2023-04-08T12:32:57.788Z,11.52
2023-04-08T12:37:02.451Z,12.57
2023-04-08T12:41:05.488Z,11.50
2023-04-08T12:45:09.386Z,11.93
2023-04-08T12:49:12.455Z,11.82
2023-04-08T12:53:16.817Z,11.27
2023-04-08T12:57:19.640Z,10.80
2023-04-08T13:01:22.567Z,10.77
2023-04-08T13:05:33.162Z,11.18
2023-04-08T13:09:46.839Z,11.23
2023-04-08T13:13:50.423Z,11.35
2023-04-08T13:17:53.278Z,11.70
2023-04-08T13:21:56.168Z,11.88
2023-04-08T13:26:00.480Z,10.50
2023-04-08T13:30:03.371Z,11.48
2023-04-08T13:34:06.378Z,11.07
2023-04-08T13:38:09.276Z,11.43
2023-04-08T13:42:13.520Z,11.32
2023-04-08T13:46:16.458Z,12.07
2023-04-08T13:50:19.378Z,11.75
2023-04-08T13:54:22.690Z,11.95
2023-04-08T13:58:27.146Z,11.55
2023-04-08T14:02:30.112Z,12.63
2023-04-08T14:06:33.658Z,12.02
2023-04-08T14:10:36.572Z,11.25
2023-04-08T14:14:40.751Z,9.75
2023-04-08T14:18:43.591Z,9.75
2023-04-08T14:22:46.400Z,9.32
2023-04-08T14:26:49.217Z,8.90
2023-04-08T14:30:54.571Z,9.73
2023-04-08T14:34:57.694Z,9.43
2023-04-08T14:39:00.707Z,9.05
2023-04-08T14:43:03.574Z,7.80
2023-04-08T14:47:07.794Z,8.82
2023-04-08T14:51:10.809Z,8.73
2023-04-08T14:55:13.688Z,9.07
2023-04-08T14:59:16.507Z,9.55
2023-04-08T15:03:20.850Z,10.05
2023-04-08T15:07:33.346Z,9.63
2023-04-08T15:11:36.243Z,9.13
2023-04-08T15:15:39.179Z,9.07
2023-04-08T15:19:43.470Z,8.13
2023-04-08T15:23:46.590Z,8.57
2023-04-08T15:27:49.808Z,9.80
2023-04-08T15:31:52.803Z,9.35
2023-04-08T15:35:57.454Z,10.20
2023-04-08T15:40:00.497Z,9.77
2023-04-08T15:44:03.389Z,9.82
2023-04-08T15:48:06.663Z,9.88
2023-04-08T15:52:10.892Z,10.80
2023-04-08T15:56:14.851Z,10.13
2023-04-08T16:00:18.082Z,10.68
2023-04-08T16:04:21.258Z,10.30
2023-04-08T16:08:25.608Z,11.05
2023-04-08T16:12:28.848Z,10.25
2023-04-08T16:16:31.970Z,11.20
2023-04-08T16:20:37.944Z,11.05
2023-04-08T16:24:42.221Z,12.48
2023-04-08T16:28:45.120Z,11.15
2023-04-08T16:32:48.643Z,11.85
2023-04-08T16:36:51.761Z,10.98
2023-04-08T16:40:58.399Z,11.70
2023-04-08T16:45:01.485Z,11.45
2023-04-08T16:49:04.376Z,11.60
2023-04-08T16:53:07.267Z,10.63
2023-04-08T16:57:11.493Z,12.73
2023-04-08T17:01:15.021Z,11.93
2023-04-08T17:05:17.952Z,11.50
2023-04-08T17:09:21.210Z,11.68
2023-04-08T17:13:25.531Z,11.05
2023-04-08T17:17:28.339Z,11.93
2023-04-08T17:21:31.131Z,11.18
2023-04-08T17:25:35.394Z,10.93
2023-04-08T17:29:39.702Z,10.77
2023-04-08T17:33:42.748Z,11.07
2023-04-08T17:37:45.559Z,11.80
2023-04-08T17:41:48.347Z,11.20
2023-04-08T17:45:53.160Z,10.93
2023-04-08T17:49:56.385Z,11.23
2023-04-08T17:53:59.290Z,11.82
2023-04-08T17:58:02.228Z,11.50
2023-04-08T18:02:06.468Z,10.73
2023-04-08T18:06:09.469Z,12.73
2023-04-08T18:10:12.677Z,10.98
2023-04-08T18:14:16.517Z,10.93
2023-04-08T18:18:21.960Z,11.65
2023-04-08T18:22:24.701Z,10.10
2023-04-08T18:26:28.257Z,11.18
2023-04-08T18:30:31.114Z,11.45
2023-04-08T18:34:35.343Z,13.57
2023-04-08T18:38:39.978Z,12.20
2023-04-08T18:42:42.831Z,11.25
2023-04-08T18:46:46.395Z,12.15
2023-04-08T18:50:50.563Z,11.93
2023-04-08T18:54:53.290Z,10.65
2023-04-08T18:58:56.060Z,11.18
2023-04-08T19:02:59.298Z,11.20
2023-04-08T19:07:03.532Z,11.98
2023-04-08T19:11:06.599Z,12.25
2023-04-08T19:15:09.918Z,12.43
2023-04-08T19:19:12.621Z,11.57
2023-04-08T19:23:18.775Z,12.35
2023-04-08T19:27:21.528Z,11.68
2023-04-08T19:31:24.499Z,11.35
2023-04-08T19:35:27.324Z,11.88
2023-04-08T19:39:31.479Z,12.52
2023-04-08T19:43:34.279Z,11.82
2023-04-08T19:47:37.141Z,12.38
2023-04-08T19:51:39.976Z,12.85
2023-04-08T19:55:44.506Z,13.00
2023-04-08T19:59:47.924Z,13.20
2023-04-08T20:03:52.122Z,14.32
2023-04-08T20:07:55.222Z,13.60
2023-04-08T20:12:04.767Z,13.88
2023-04-08T20:16:08.152Z,13.85
2023-04-08T20:20:11.721Z,15.52
2023-04-08T20:24:14.520Z,14.75
2023-04-08T20:28:18.943Z,16.58
2023-04-08T20:32:21.772Z,17.80
2023-04-08T20:36:25.199Z,17.08
2023-04-08T20:40:28.067Z,17.65
2023-04-08T20:44:32.267Z,17.73
2023-04-08T20:48:36.049Z,18.55
2023-04-08T20:52:39.456Z,18.35
2023-04-08T20:56:42.610Z,19.90
2023-04-08T21:00:48.464Z,20.75
2023-04-08T21:04:51.350Z,21.67
2023-04-08T21:08:54.610Z,21.88
2023-04-08T21:12:57.450Z,20.30
2023-04-08T21:17:01.874Z,21.10
2023-04-08T21:21:04.790Z,21.08
2023-04-08T21:25:08.328Z,22.20
2023-04-08T21:29:11.452Z,23.55
2023-04-08T21:33:15.762Z,23.33
2023-04-08T21:37:18.621Z,24.23
2023-04-08T21:41:21.416Z,24.63
2023-04-08T21:45:24.779Z,25.65
2023-04-08T21:49:29.853Z,26.00
2023-04-08T21:53:32.631Z,26.73
2023-04-08T21:57:35.512Z,30.30
2023-04-08T22:01:38.427Z,30.17
2023-04-08T22:05:42.725Z,32.38
2023-04-08T22:09:46.208Z,32.45
2023-04-08T22:13:49.057Z,26.60
2023-04-08T22:17:53.086Z,26.70
2023-04-08T22:21:57.418Z,24.35
2023-04-08T22:26:00.317Z,22.20
2023-04-08T22:30:03.211Z,23.15
2023-04-08T22:34:06.454Z,26.65
2023-04-08T22:38:10.612Z,27.63
2023-04-08T22:42:13.432Z,25.02
2023-04-08T22:46:18.115Z,25.25
2023-04-08T22:50:21.799Z,22.67
2023-04-08T22:54:26.112Z,22.30
2023-04-08T22:58:28.931Z,22.67
2023-04-08T23:02:31.873Z,21.33
2023-04-08T23:06:34.775Z,22.08
2023-04-08T23:10:38.988Z,20.35
2023-04-08T23:14:42.013Z,20.63
2023-04-08T23:18:44.770Z,20.45
2023-04-08T23:22:47.625Z,19.55
2023-04-08T23:26:51.836Z,20.65
2023-04-08T23:30:54.813Z,21.67
2023-04-08T23:34:57.625Z,21.05
2023-04-08T23:39:00.590Z,19.52
2023-04-08T23:43:04.808Z,20.50
2023-04-08T23:47:07.612Z,20.23
2023-04-08T23:51:11.695Z,20.52
2023-04-08T23:55:14.664Z,20.92
2023-04-08T23:59:19.006Z,21.70
